KFIG

Clearfield-Lawrence Airport

Clearfield, Pennsylvania, USA
METAR KFIG 172121Z AUTO 00000KT 1/2SM SN FZFG FEW006 OVC011 M02/M03 A3004 RMK AO2 P0003 T10171028
Observed Flight Rules
Feb-17 @ 21:21 UTC (14 minutes ago) Instrument Flight Rules
Wind Visibility Clouds Conditions
Calm 1/2 miles
  • Few at 600' AGL
  • Overcast at 1,100' AGL
  • Snow
  • Freezing
  • Fog
Temperatures Readings Precipitation
Current -2°C / 28°F
Dewpoint -3°C / 27°F
Humidity 93%
Altimeter 30.04" Hg
Pressure 1017 hPa
Elevation 462
Current Rain 0.03
METAR KFIG 172121Z AUTO 00000KT 1/2SM SN FZFG FEW006 OVC011 M02/M03 A3004 RMK AO2 P0003 T10171028
Observed Flight Rules
Feb-17 @ 21:21 UTC
(14 minutes ago)
LIFR
Wind Visibility
Calm 1/2 miles
Clouds
  • Few at 600' AGL
  • Overcast at 1,100' AGL
Conditions
  • Snow
  • Freezing
  • Fog
Temperature Dewpoint
-2°C / 28°F -3°C / 27°F
Humidity Altimeter Pressure
93% 30.04" Hg 1017 hPa
Current Rain
0.03